Time;durP1;ratioP1;P1;durP2;ratioP2;P2;SDS_P1;SDS_P2;PMS_P1;PMS_P2;Temp;Humidity;BMP_temperature;BMP_pressure;BME280_temperature;BME280_humidity;BME280_pressure;Samples;Min_cycle;Max_cycle;Signal;HPM_P1;HPM_P2
2024/02/01 00:00:05;;;;;;;19.70;11.50;;;;;;;2.57;69.48;100058.39;108672;1253;109666;-78
2024/02/01 00:02:33;;;;;;;21.90;12.00;;;;;;;2.58;69.60;100049.09;108626;1253;95081;-78
2024/02/01 00:05:01;;;;;;;21.20;11.90;;;;;;;2.57;69.59;100045.26;108644;1253;107357;-78
2024/02/01 00:07:29;;;;;;;18.60;10.50;;;;;;;2.56;69.52;100038.80;108643;1253;94297;-77
2024/02/01 00:09:56;;;;;;;19.20;11.20;;;;;;;2.56;69.47;100034.77;108664;1253;94340;-79
2024/02/01 00:12:24;;;;;;;22.40;10.80;;;;;;;2.55;69.42;100028.50;108665;1253;109987;-77
2024/02/01 00:14:52;;;;;;;19.90;10.20;;;;;;;2.53;69.36;100028.02;108715;1253;94362;-78
2024/02/01 00:17:20;;;;;;;18.70;9.80;;;;;;;2.52;69.45;100027.16;108539;1254;107118;-78
2024/02/01 00:19:48;;;;;;;21.40;10.90;;;;;;;2.50;69.49;100022.64;108669;1253;94641;-78
2024/02/01 00:22:15;;;;;;;19.60;10.70;;;;;;;2.49;69.57;100018.29;108684;1253;94305;-78
2024/02/01 00:25:00;;;;;;;19.80;10.40;;;;;;;2.47;69.62;100010.64;108729;1253;108904;-78
2024/02/01 00:27:28;;;;;;;20.70;11.20;;;;;;;2.45;69.68;100010.18;108683;1253;94225;-78
2024/02/01 00:29:56;;;;;;;21.80;11.60;;;;;;;2.42;69.37;100000.98;108645;1254;107354;-78
2024/02/01 00:32:24;;;;;;;20.10;11.60;;;;;;;2.37;69.27;99996.70;108707;1253;95014;-78
2024/02/01 00:34:52;;;;;;;20.10;11.00;;;;;;;2.31;69.15;100000.86;108720;1253;94776;-78
2024/02/01 00:37:20;;;;;;;21.10;11.60;;;;;;;2.25;69.26;99992.26;108766;1253;110474;-78
2024/02/01 00:39:47;;;;;;;19.50;9.90;;;;;;;2.19;68.85;99987.52;108664;1253;95544;-78
2024/02/01 00:42:15;;;;;;;22.00;10.90;;;;;;;2.14;69.31;99982.02;108647;1253;107353;-78
2024/02/01 00:44:43;;;;;;;19.90;10.70;;;;;;;2.08;69.10;99979.86;108672;1253;94517;-78
2024/02/01 00:47:11;;;;;;;16.60;10.30;;;;;;;2.01;69.12;99974.46;108721;1253;94334;-78
2024/02/01 00:49:39;;;;;;;22.00;10.30;;;;;;;1.95;69.19;99965.48;108706;1253;108798;-78
2024/02/01 00:52:07;;;;;;;22.50;12.20;;;;;;;1.88;68.81;99964.23;108688;1253;95500;-78
2024/02/01 00:54:38;;;;;;;23.40;11.80;;;;;;;1.85;68.95;99957.48;108704;1252;107641;-78
2024/02/01 00:57:06;;;;;;;23.70;11.90;;;;;;;1.81;69.15;99954.97;108667;1253;94851;-78
2024/02/01 00:59:33;;;;;;;20.50;11.10;;;;;;;1.74;68.97;99954.58;108631;1253;94583;-78
2024/02/01 01:02:01;;;;;;;22.30;11.20;;;;;;;1.71;69.08;99945.02;108660;1253;110697;-76
2024/02/01 01:04:30;;;;;;;18.40;9.70;;;;;;;1.68;68.96;99942.80;108680;1253;95510;-78
2024/02/01 01:06:58;;;;;;;21.00;10.50;;;;;;;1.65;68.97;99935.37;108663;1253;107780;-78
2024/02/01 01:09:25;;;;;;;23.80;11.90;;;;;;;1.60;69.08;99927.95;108646;1253;94495;-78
2024/02/01 01:11:54;;;;;;;17.10;10.00;;;;;;;1.58;68.98;99917.70;108656;1253;94253;-78
2024/02/01 01:14:21;;;;;;;20.50;10.60;;;;;;;1.55;69.14;99914.26;108676;1253;110577;-78
2024/02/01 01:16:49;;;;;;;20.80;12.10;;;;;;;1.53;69.26;99906.44;108667;1253;95314;-77
2024/02/01 01:19:17;;;;;;;21.10;11.70;;;;;;;1.52;68.85;99903.83;108661;1254;107586;-77
2024/02/01 01:21:45;;;;;;;18.00;9.20;;;;;;;1.49;69.12;99897.77;108714;1253;95369;-76
2024/02/01 01:24:13;;;;;;;22.60;11.70;;;;;;;1.46;69.01;99896.79;108716;1253;94934;-77
2024/02/01 01:26:41;;;;;;;16.90;9.20;;;;;;;1.44;68.97;99891.42;108667;1253;109978;-78
2024/02/01 01:29:09;;;;;;;20.50;10.60;;;;;;;1.42;68.89;99894.08;108752;1252;95564;-77
2024/02/01 01:31:36;;;;;;;18.80;10.30;;;;;;;1.41;68.95;99888.88;108631;1253;107142;-78
2024/02/01 01:34:04;;;;;;;21.80;11.40;;;;;;;1.40;68.85;99885.93;108674;1253;94600;-77
2024/02/01 01:36:32;;;;;;;19.60;10.80;;;;;;;1.38;69.24;99882.11;108640;1254;94743;-78
2024/02/01 01:39:01;;;;;;;20.70;11.80;;;;;;;1.35;69.04;99876.05;108684;1253;111044;-78
2024/02/01 01:41:29;;;;;;;20.30;10.90;;;;;;;1.34;68.92;99873.27;108732;1253;95524;-76
2024/02/01 01:43:57;;;;;;;21.30;11.30;;;;;;;1.32;68.81;99867.55;108627;1253;107680;-77
2024/02/01 01:46:25;;;;;;;26.80;13.70;;;;;;;1.30;68.99;99860.95;108680;1254;94326;-77
2024/02/01 01:48:53;;;;;;;21.10;10.70;;;;;;;1.28;69.08;99861.88;108699;1253;94580;-77
2024/02/01 01:51:21;;;;;;;20.70;11.50;;;;;;;1.26;68.92;99855.98;108581;1254;110019;-77
2024/02/01 01:53:50;;;;;;;25.40;12.20;;;;;;;1.25;68.85;99851.98;108740;1253;95172;-76
2024/02/01 01:56:18;;;;;;;22.90;11.40;;;;;;;1.25;69.04;99852.87;108660;1253;107757;-76
2024/02/01 01:58:46;;;;;;;21.30;10.80;;;;;;;1.24;69.04;99849.56;108652;1253;94241;-76
2024/02/01 02:01:14;;;;;;;20.00;11.80;;;;;;;1.23;69.07;99848.20;108677;1253;97339;-75
2024/02/01 02:03:44;;;;;;;18.50;9.90;;;;;;;1.22;68.88;99848.73;108617;1253;109931;-75
2024/02/01 02:06:12;;;;;;;25.80;12.20;;;;;;;1.20;68.96;99846.33;108696;1253;94358;-75
2024/02/01 02:08:40;;;;;;;17.30;10.40;;;;;;;1.18;69.08;99844.80;108654;1253;107464;-76
2024/02/01 02:11:26;;;;;;;15.60;8.90;;;;;;;1.17;68.95;99837.65;108660;1253;94456;-76
2024/02/01 02:13:54;;;;;;;18.50;10.60;;;;;;;1.13;69.03;99833.36;108687;1253;94610;-75
2024/02/01 02:16:22;;;;;;;18.60;10.00;;;;;;;1.12;69.15;99829.88;108715;1253;109997;-75
2024/02/01 02:18:50;;;;;;;23.30;11.30;;;;;;;1.11;69.01;99825.54;108648;1253;95573;-76
2024/02/01 02:21:21;;;;;;;23.80;13.00;;;;;;;1.10;68.99;99822.42;108665;1253;107228;-75
2024/02/01 02:23:50;;;;;;;18.70;10.40;;;;;;;1.10;69.11;99820.35;108676;1253;94490;-75
2024/02/01 02:26:18;;;;;;;20.60;10.60;;;;;;;1.10;69.12;99817.02;108721;1253;94374;-75
2024/02/01 02:28:45;;;;;;;20.90;10.90;;;;;;;1.10;69.15;99815.44;108664;1253;109032;-75
2024/02/01 02:31:13;;;;;;;21.40;10.00;;;;;;;1.12;69.05;99816.11;108667;1253;95522;-76
2024/02/01 02:33:41;;;;;;;20.80;11.30;;;;;;;1.15;69.19;99809.23;108655;1253;107655;-75
2024/02/01 02:36:09;;;;;;;21.70;11.00;;;;;;;1.16;69.22;99806.74;108618;1253;94381;-73
2024/02/01 02:38:39;;;;;;;21.90;10.60;;;;;;;1.19;69.19;99805.45;108714;1253;94230;-76
2024/02/01 02:41:07;;;;;;;18.50;10.80;;;;;;;1.22;69.20;99808.73;108672;1253;109931;-75
2024/02/01 02:43:34;;;;;;;15.20;8.50;;;;;;;1.27;69.31;99805.63;108747;1253;95823;-76
2024/02/01 02:46:02;;;;;;;22.00;11.40;;;;;;;1.30;69.21;99800.52;108629;1253;106751;-76
2024/02/01 02:48:32;;;;;;;18.00;9.40;;;;;;;1.32;69.13;99797.84;108677;1253;94323;-75
2024/02/01 02:51:00;;;;;;;19.80;11.00;;;;;;;1.34;69.20;99794.84;108552;1253;94299;-76
2024/02/01 02:53:28;;;;;;;19.70;9.20;;;;;;;1.34;69.22;99785.56;108641;1253;109832;-76
2024/02/01 02:55:58;;;;;;;19.90;10.40;;;;;;;1.33;69.12;99783.81;108760;1253;94460;-76
2024/02/01 02:58:25;;;;;;;17.70;9.40;;;;;;;1.32;69.39;99776.70;108733;1253;108826;-75
2024/02/01 03:00:53;;;;;;;21.30;11.20;;;;;;;1.30;68.92;99766.93;108705;1253;94231;-76
2024/02/01 03:03:21;;;;;;;14.30;8.50;;;;;;;1.28;69.25;99769.61;108712;1253;94354;-73
2024/02/01 03:05:49;;;;;;;21.40;10.80;;;;;;;1.27;69.02;99769.98;108741;1253;109881;-76
2024/02/01 03:08:18;;;;;;;21.30;11.40;;;;;;;1.25;68.93;99762.87;108718;1252;95259;-75
2024/02/01 03:10:46;;;;;;;25.10;12.80;;;;;;;1.23;69.02;99760.81;108680;1253;107567;-74
2024/02/01 03:13:14;;;;;;;20.70;11.50;;;;;;;1.23;69.27;99755.59;108688;1253;94244;-75
2024/02/01 03:15:42;;;;;;;23.10;11.60;;;;;;;1.21;68.95;99747.27;108665;1253;94258;-76
2024/02/01 03:18:10;;;;;;;17.80;10.20;;;;;;;1.18;69.34;99748.70;108708;1254;109386;-74
2024/02/01 03:20:38;;;;;;;17.00;9.50;;;;;;;1.19;69.18;99745.73;108661;1253;95463;-77
2024/02/01 03:23:07;;;;;;;21.90;10.60;;;;;;;1.18;69.38;99739.27;108740;1252;107251;-75
2024/02/01 03:25:36;;;;;;;23.10;11.60;;;;;;;1.17;69.42;99735.80;108603;1253;94665;-76
2024/02/01 03:28:04;;;;;;;21.80;11.60;;;;;;;1.18;69.14;99730.71;108674;1253;94373;-76
2024/02/01 03:30:37;;;;;;;20.40;9.80;;;;;;;1.19;69.39;99723.17;108662;1253;109854;-74
2024/02/01 03:33:04;;;;;;;23.30;12.30;;;;;;;1.18;69.05;99722.67;108665;1253;95537;-76
2024/02/01 03:35:32;;;;;;;22.30;8.60;;;;;;;1.18;69.35;99724.94;108684;1253;107714;-74
2024/02/01 03:38:01;;;;;;;15.60;8.70;;;;;;;1.18;69.19;99725.48;108663;1253;94422;-75
2024/02/01 03:40:29;;;;;;;23.80;11.20;;;;;;;1.16;69.34;99720.97;108715;1253;94598;-76
2024/02/01 03:42:57;;;;;;;17.30;8.40;;;;;;;1.14;69.12;99716.14;108690;1253;109329;-75
2024/02/01 03:45:48;;;;;;;22.60;11.20;;;;;;;1.13;69.25;99717.73;108711;1253;94696;-76
2024/02/01 03:48:17;;;;;;;19.80;10.20;;;;;;;1.11;69.24;99718.13;108694;1254;107219;-76
2024/02/01 03:50:45;;;;;;;15.20;7.70;;;;;;;1.11;69.23;99715.52;108534;1254;94385;-76
2024/02/01 03:53:13;;;;;;;18.80;9.60;;;;;;;1.09;69.05;99710.83;108764;1254;94420;-76
2024/02/01 03:55:41;;;;;;;20.80;11.50;;;;;;;1.07;69.26;99709.13;108715;1253;110053;-75
2024/02/01 03:58:09;;;;;;;19.60;9.10;;;;;;;1.06;69.23;99712.80;108700;1253;94514;-75
2024/02/01 04:00:36;;;;;;;23.70;10.80;;;;;;;1.05;69.19;99709.52;108668;1253;107270;-76
2024/02/01 04:03:04;;;;;;;19.50;10.80;;;;;;;1.02;69.01;99704.69;108712;1254;94614;-76
2024/02/01 04:05:36;;;;;;;15.80;8.00;;;;;;;0.99;68.94;99707.57;108679;1253;94461;-76
2024/02/01 04:08:08;;;;;;;19.50;10.00;;;;;;;0.95;69.33;99702.60;108731;1253;110633;-73
2024/02/01 04:10:37;;;;;;;18.60;9.60;;;;;;;0.90;69.04;99707.42;108561;1254;95627;-76
2024/02/01 04:13:07;;;;;;;18.70;10.30;;;;;;;0.87;69.00;99697.18;108567;1253;107767;-75
2024/02/01 04:15:35;;;;;;;20.70;11.40;;;;;;;0.84;69.03;99695.15;108679;1253;94293;-76
2024/02/01 04:18:05;;;;;;;19.40;11.30;;;;;;;0.82;69.02;99691.19;108703;1253;94244;-76
2024/02/01 04:20:34;;;;;;;21.30;10.30;;;;;;;0.79;68.95;99696.16;108759;1253;109842;-76
2024/02/01 04:23:03;;;;;;;18.00;9.70;;;;;;;0.75;68.98;99700.42;108732;1253;95187;-76
2024/02/01 04:25:31;;;;;;;18.20;8.50;;;;;;;0.72;69.08;99698.73;108800;1253;107674;-75
2024/02/01 04:27:58;;;;;;;21.90;11.80;;;;;;;0.70;69.00;99703.67;108662;1253;94339;-76
2024/02/01 04:30:26;;;;;;;20.30;9.20;;;;;;;0.66;69.09;99702.70;108765;1253;94255;-75
2024/02/01 04:32:54;;;;;;;20.70;10.70;;;;;;;0.63;69.00;99704.52;108666;1253;109038;-75
2024/02/01 04:35:22;;;;;;;27.00;11.40;;;;;;;0.61;68.94;99702.13;108730;1253;95483;-75
2024/02/01 04:37:52;;;;;;;22.00;11.70;;;;;;;0.59;68.96;99703.92;108659;1254;107690;-75
2024/02/01 04:40:21;;;;;;;22.50;11.40;;;;;;;0.57;69.00;99697.67;108750;1253;94245;-74
2024/02/01 04:42:52;;;;;;;24.20;11.20;;;;;;;0.56;69.12;99698.92;108699;1253;94289;-76
2024/02/01 04:45:20;;;;;;;20.70;10.70;;;;;;;0.54;68.96;99689.54;108637;1253;110039;-75
2024/02/01 04:47:49;;;;;;;15.60;8.20;;;;;;;0.51;69.04;99688.72;108704;1253;96070;-75
2024/02/01 04:50:17;;;;;;;16.40;8.50;;;;;;;0.50;68.88;99681.95;108701;1253;107409;-75
2024/02/01 04:52:45;;;;;;;21.50;11.20;;;;;;;0.47;68.97;99680.79;108682;1253;94841;-76
2024/02/01 04:55:13;;;;;;;22.70;12.00;;;;;;;0.44;69.06;99680.14;108724;1254;94282;-73
2024/02/01 04:57:41;;;;;;;15.60;9.10;;;;;;;0.42;68.99;99670.76;108724;1253;110436;-72
2024/02/01 05:00:27;;;;;;;19.30;10.60;;;;;;;0.41;69.02;99668.17;108722;1253;96623;-72
2024/02/01 05:02:55;;;;;;;16.70;10.20;;;;;;;0.37;69.04;99670.16;108632;1253;107788;-72
2024/02/01 05:05:24;;;;;;;25.30;11.90;;;;;;;0.34;69.02;99666.23;108655;1253;95570;-72
2024/02/01 05:07:52;;;;;;;24.30;12.40;;;;;;;0.31;69.04;99661.39;108723;1254;94391;-75
2024/02/01 05:10:20;;;;;;;19.30;9.80;;;;;;;0.30;69.04;99656.52;108521;1254;109911;-76
2024/02/01 05:12:48;;;;;;;16.90;8.60;;;;;;;0.28;69.17;99663.55;108716;1253;94612;-76
2024/02/01 05:15:18;;;;;;;28.20;13.20;;;;;;;0.26;69.05;99659.59;108723;1253;108022;-76
2024/02/01 05:17:45;;;;;;;24.20;12.00;;;;;;;0.24;69.14;99662.92;108749;1253;94414;-76
2024/02/01 05:20:13;;;;;;;19.10;10.70;;;;;;;0.23;69.19;99665.56;108683;1253;94540;-76
2024/02/01 05:22:42;;;;;;;20.90;11.00;;;;;;;0.22;68.99;99664.54;108737;1254;109334;-75
2024/02/01 05:25:15;;;;;;;19.90;10.50;;;;;;;0.21;69.09;99669.64;108721;1253;94484;-77
2024/02/01 05:27:50;;;;;;;25.30;13.60;;;;;;;0.19;69.10;99667.24;108631;1253;107658;-78
2024/02/01 05:30:20;;;;;;;19.10;11.50;;;;;;;0.18;69.20;99664.13;108534;1253;94279;-77
2024/02/01 05:32:54;;;;;;;22.60;11.60;;;;;;;0.16;69.15;99658.92;108485;1254;94751;-77
2024/02/01 05:35:26;;;;;;;24.10;12.30;;;;;;;0.14;69.23;99655.98;108704;1253;110956;-77
2024/02/01 05:38:02;;;;;;;21.90;11.50;;;;;;;0.13;69.13;99658.09;108714;1253;95718;-78
2024/02/01 05:40:31;;;;;;;25.10;12.00;;;;;;;0.11;69.25;99660.23;108731;1253;107691;-73
2024/02/01 05:43:12;;;;;;;18.50;9.90;;;;;;;0.10;69.25;99657.11;108677;1253;94575;-73
2024/02/01 05:45:40;;;;;;;26.00;13.30;;;;;;;0.09;69.25;99658.36;108698;1254;94232;-73
2024/02/01 05:48:11;;;;;;;27.10;14.00;;;;;;;0.09;69.32;99658.52;108764;1252;109999;-73
2024/02/01 05:50:40;;;;;;;30.20;14.10;;;;;;;0.10;69.44;99656.94;108674;1254;95473;-74
2024/02/01 05:53:09;;;;;;;22.70;12.00;;;;;;;0.11;69.31;99656.92;108702;1253;107082;-76
2024/02/01 05:55:37;;;;;;;27.80;13.80;;;;;;;0.12;69.46;99654.65;108685;1253;94272;-75
2024/02/01 05:58:06;;;;;;;28.60;14.00;;;;;;;0.14;69.49;99661.23;108710;1253;94306;-75
2024/02/01 06:00:37;;;;;;;25.80;12.80;;;;;;;0.18;69.48;99667.25;108662;1253;109912;-75
2024/02/01 06:03:08;;;;;;;28.90;13.70;;;;;;;0.23;69.40;99661.19;108696;1254;94743;-75
2024/02/01 06:05:36;;;;;;;26.10;12.10;;;;;;;0.25;69.58;99666.77;108710;1253;108758;-76
2024/02/01 06:08:05;;;;;;;23.20;11.80;;;;;;;0.27;69.56;99662.01;108673;1254;94523;-75
2024/02/01 06:10:32;;;;;;;28.20;12.50;;;;;;;0.30;69.43;99655.84;108623;1254;94568;-76
2024/02/01 06:13:00;;;;;;;24.30;12.40;;;;;;;0.33;69.52;99656.65;108630;1253;109543;-75
2024/02/01 06:15:28;;;;;;;21.50;12.00;;;;;;;0.38;69.66;99653.41;108615;1254;95459;-75
2024/02/01 06:17:56;;;;;;;24.30;12.70;;;;;;;0.41;69.64;99651.42;108625;1254;108230;-75
2024/02/01 06:20:24;;;;;;;27.30;13.10;;;;;;;0.44;69.70;99644.71;108636;1253;94292;-76
2024/02/01 06:22:52;;;;;;;21.70;11.80;;;;;;;0.48;69.60;99640.63;108695;1253;94254;-77
2024/02/01 06:25:20;;;;;;;19.70;9.40;;;;;;;0.51;69.66;99638.63;108709;1254;109895;-73
2024/02/01 06:27:48;;;;;;;31.00;13.50;;;;;;;0.53;69.83;99642.42;108706;1254;95860;-76
2024/02/01 06:30:16;;;;;;;27.90;13.60;;;;;;;0.55;69.76;99639.77;108681;1254;107818;-76
2024/02/01 06:32:45;;;;;;;25.50;11.90;;;;;;;0.57;69.81;99639.71;108692;1254;94363;-75
2024/02/01 06:35:21;;;;;;;29.10;12.90;;;;;;;0.59;69.95;99640.90;108729;1254;94425;-75
2024/02/01 06:38:04;;;;;;;19.20;11.20;;;;;;;0.61;69.92;99636.14;108714;1254;109762;-75
2024/02/01 06:40:48;;;;;;;31.30;13.10;;;;;;;0.63;69.84;99627.02;108790;1253;94617;-75
2024/02/01 06:43:27;;;;;;;;;;;;;;;0.65;69.82;99632.38;108759;1254;107096;-75
2024/02/01 06:46:08;;;;;;;25.50;12.40;;;;;;;0.67;69.86;99633.73;108679;1254;94308;-75
2024/02/01 06:48:46;;;;;;;23.30;10.70;;;;;;;0.70;69.88;99634.02;108574;1254;94305;-75
2024/02/01 06:51:21;;;;;;;25.40;11.90;;;;;;;0.73;70.04;99634.83;108737;1253;109924;-76
2024/02/01 06:53:57;;;;;;;24.70;12.20;;;;;;;0.76;69.86;99625.16;108790;1253;95095;-76
2024/02/01 06:56:48;;;;;;;17.90;9.60;;;;;;;0.79;70.22;99624.04;108758;1253;107898;-75
2024/02/01 06:59:44;;;;;;;25.10;12.70;;;;;;;0.80;70.07;99623.67;108771;1253;94803;-76
2024/02/01 07:02:24;;;;;;;24.10;11.40;;;;;;;0.83;70.17;99628.81;108732;1253;94212;-76
2024/02/01 07:04:53;;;;;;;26.90;12.50;;;;;;;0.84;70.05;99622.69;108700;1253;109726;-75
2024/02/01 07:07:29;;;;;;;28.10;13.50;;;;;;;0.86;70.13;99618.46;108441;1254;95320;-75
2024/02/01 07:09:57;;;;;;;23.80;11.90;;;;;;;0.89;70.15;99614.90;108696;1253;106208;-74
2024/02/01 07:12:41;;;;;;;26.30;13.90;;;;;;;0.93;70.43;99611.14;108685;1254;94559;-74
2024/02/01 07:15:30;;;;;;;26.00;13.40;;;;;;;0.98;70.11;99606.13;108750;1254;94636;-74
2024/02/01 07:18:05;;;;;;;27.30;13.30;;;;;;;1.00;70.15;99603.61;108724;1253;110625;-73
2024/02/01 07:20:35;;;;;;;23.70;11.70;;;;;;;1.04;70.22;99607.19;108645;1253;95520;-74
2024/02/01 07:23:33;;;;;;;25.90;12.90;;;;;;;1.08;70.29;99602.22;108548;1253;107673;-74
2024/02/01 07:26:24;;;;;;;26.20;13.10;;;;;;;1.11;70.40;99603.71;108602;1254;95098;-74
2024/02/01 07:59:58;;;;;;;23.20;12.40;;;;;;;1.43;70.69;99579.12;108679;1253;109760;-74
2024/02/01 08:07:58;;;;;;;22.00;10.90;;;;;;;1.48;70.71;99584.05;108735;1254;94214;-74
2024/02/01 08:10:26;;;;;;;22.00;10.80;;;;;;;1.52;70.88;99577.48;108773;1253;94405;-74
2024/02/01 08:12:55;;;;;;;22.90;11.80;;;;;;;1.57;70.83;99579.61;108782;1254;109992;-74
2024/02/01 08:15:24;;;;;;;27.10;12.70;;;;;;;1.60;71.00;99580.77;108804;1256;95245;-74
2024/02/01 08:17:52;;;;;;;23.80;11.90;;;;;;;1.64;70.66;99575.22;108621;1254;107521;-74
2024/02/01 08:20:21;;;;;;;20.90;9.90;;;;;;;1.66;70.93;99573.77;108741;1254;94635;-75
2024/02/01 08:22:49;;;;;;;26.80;12.80;;;;;;;1.71;70.88;99578.88;108750;1253;94253;-74
2024/02/01 08:25:17;;;;;;;26.20;13.90;;;;;;;1.76;70.79;99570.52;108797;1254;109017;-74
2024/02/01 08:27:54;;;;;;;27.30;14.10;;;;;;;1.78;70.70;99575.00;108764;1254;95178;-75
2024/02/01 08:30:27;;;;;;;29.20;14.30;;;;;;;1.82;70.68;99572.83;108733;1253;107635;-75
2024/02/01 08:33:02;;;;;;;27.50;13.40;;;;;;;1.85;70.59;99572.72;108747;1253;94289;-75
2024/02/01 08:35:36;;;;;;;21.40;10.60;;;;;;;1.88;70.91;99568.41;108751;1254;94737;-74
2024/02/01 08:38:05;;;;;;;;;;;;;;;1.94;70.76;99568.78;108777;1254;109925;-75
2024/02/01 08:40:33;;;;;;;15.80;8.70;;;;;;;1.97;71.08;99568.01;108764;1253;95570;-75
2024/02/01 08:43:01;;;;;;;23.60;12.60;;;;;;;2.00;71.04;99559.86;108732;1254;107589;-74
2024/02/01 08:45:30;;;;;;;25.60;12.40;;;;;;;2.05;70.91;99555.48;108694;1254;94245;-74
2024/02/01 08:48:02;;;;;;;25.80;12.70;;;;;;;2.11;71.06;99560.06;108781;1254;95233;-74
2024/02/01 08:50:33;;;;;;;21.70;10.30;;;;;;;2.15;70.98;99560.27;108752;1253;109971;-74
2024/02/01 08:53:01;;;;;;;23.30;11.90;;;;;;;2.25;71.01;99548.09;108747;1254;96017;-74
2024/02/01 08:55:30;;;;;;;23.90;12.50;;;;;;;2.34;71.14;99555.33;108689;1254;107726;-74
2024/02/01 08:58:08;;;;;;;28.60;14.10;;;;;;;2.43;70.69;99549.98;108701;1254;95414;-75
2024/02/01 09:00:38;;;;;;;22.40;11.00;;;;;;;2.53;71.02;99544.42;108781;1253;94536;-75
2024/02/01 09:03:10;;;;;;;24.00;12.10;;;;;;;2.60;71.21;99552.60;108512;1254;109930;-75
2024/02/01 09:05:42;;;;;;;21.60;10.70;;;;;;;2.66;70.81;99543.48;108782;1253;95290;-75
2024/02/01 09:08:14;;;;;;;24.10;12.20;;;;;;;2.70;71.08;99539.14;108708;1253;107642;-75
2024/02/01 09:11:00;;;;;;;27.40;13.00;;;;;;;2.74;71.18;99535.16;108764;1254;94622;-75
2024/02/01 09:13:30;;;;;;;24.20;13.10;;;;;;;2.80;70.98;99534.98;108753;1254;94243;-75
2024/02/01 09:15:58;;;;;;;22.10;12.00;;;;;;;2.85;71.07;99527.63;108798;1254;110658;-75
2024/02/01 09:18:26;;;;;;;24.50;12.60;;;;;;;2.91;71.16;99529.52;108731;1254;95063;-75
2024/02/01 09:20:55;;;;;;;23.60;12.40;;;;;;;2.94;70.83;99535.73;108766;1254;107243;-75
2024/02/01 09:23:23;;;;;;;23.40;11.60;;;;;;;3.00;71.10;99522.56;108785;1254;94667;-75
2024/02/01 09:25:51;;;;;;;25.50;12.60;;;;;;;3.05;70.97;99523.45;108772;1254;94654;-75
2024/02/01 09:28:19;;;;;;;17.20;10.60;;;;;;;3.12;71.23;99517.25;108758;1254;110240;-75
2024/02/01 09:30:48;;;;;;;25.10;12.20;;;;;;;3.18;71.08;99518.10;108740;1254;95304;-75
2024/02/01 09:33:18;;;;;;;19.20;9.10;;;;;;;3.23;71.05;99517.20;108467;1254;107714;-75
2024/02/01 09:35:47;;;;;;;20.50;12.60;;;;;;;3.30;71.05;99515.39;108749;1254;94546;-75
2024/02/01 09:38:17;;;;;;;26.90;12.80;;;;;;;3.37;71.08;99521.11;108787;1253;94244;-75
2024/02/01 09:40:46;;;;;;;27.90;13.40;;;;;;;3.46;70.98;99526.93;108749;1254;110043;-75
2024/02/01 09:43:20;;;;;;;24.80;12.20;;;;;;;3.55;71.09;99525.20;108789;1254;95511;-75
2024/02/01 09:45:49;;;;;;;24.00;12.00;;;;;;;3.62;70.90;99517.95;108541;1254;106747;-75
2024/02/01 09:48:19;;;;;;;21.50;12.40;;;;;;;3.64;70.99;99522.61;108533;1253;94750;-75
2024/02/01 09:50:51;;;;;;;25.50;12.10;;;;;;;3.66;70.95;99524.99;108735;1254;94271;-75
2024/02/01 09:53:23;;;;;;;23.70;12.20;;;;;;;3.71;71.06;99530.77;108706;1254;110110;-76
2024/02/01 09:55:54;;;;;;;24.60;12.80;;;;;;;3.75;70.76;99531.16;108789;1254;95087;-75
2024/02/01 09:58:22;;;;;;;24.50;11.70;;;;;;;3.77;70.94;99521.77;108483;1253;107686;-75
2024/02/01 10:00:50;;;;;;;25.90;13.60;;;;;;;3.79;70.94;99514.50;108718;1254;94271;-75
2024/02/01 10:03:22;;;;;;;26.30;14.20;;;;;;;3.80;70.99;99511.84;108746;1254;94700;-75
2024/02/01 10:05:52;;;;;;;23.30;11.90;;;;;;;3.81;70.95;99508.64;108716;1254;109856;-75
2024/02/01 10:08:21;;;;;;;26.70;13.20;;;;;;;3.81;70.81;99505.65;108677;1254;95681;-75
2024/02/01 10:10:49;;;;;;;22.10;11.80;;;;;;;3.80;70.75;99497.29;108666;1257;107697;-75
2024/02/01 10:13:18;;;;;;;19.20;11.40;;;;;;;3.81;70.74;99494.95;108690;1254;95460;-75
2024/02/01 10:15:47;;;;;;;20.50;11.00;;;;;;;3.82;70.54;99492.46;108705;1254;94483;-75
2024/02/01 10:18:23;;;;;;;28.50;13.30;;;;;;;3.83;70.60;99494.17;108637;1254;109990;-75
2024/02/01 10:20:58;;;;;;;26.60;13.40;;;;;;;3.87;70.69;99486.65;108752;1254;95523;-75
2024/02/01 10:23:27;;;;;;;24.40;12.20;;;;;;;3.91;70.71;99483.01;108717;1254;107386;-75
2024/02/01 10:25:55;;;;;;;26.50;14.10;;;;;;;3.94;70.63;99482.35;108656;1254;94819;-75
2024/02/01 10:28:34;;;;;;;25.90;13.60;;;;;;;3.96;70.56;99479.98;108775;1254;94266;-75
2024/02/01 10:31:07;;;;;;;25.80;12.80;;;;;;;4.00;70.57;99477.54;108573;1254;110638;-74
2024/02/01 10:33:37;;;;;;;24.60;12.30;;;;;;;4.05;70.70;99470.86;108743;1257;95294;-74
2024/02/01 10:36:12;;;;;;;29.60;14.20;;;;;;;4.13;70.58;99468.29;108707;1254;108065;-74
2024/02/01 10:38:44;;;;;;;36.20;16.30;;;;;;;4.19;70.56;99466.48;108708;1254;94233;-73
2024/02/01 10:41:24;;;;;;;35.10;16.30;;;;;;;4.24;70.46;99465.04;108737;1254;95218;-74
2024/02/01 10:43:52;;;;;;;28.30;13.60;;;;;;;4.28;70.66;99464.52;108508;1254;109986;-74
2024/02/01 10:46:28;;;;;;;28.70;14.60;;;;;;;4.29;70.60;99464.83;108765;1254;95567;-74
2024/02/01 10:49:02;;;;;;;25.80;12.80;;;;;;;4.28;70.57;99461.02;108713;1254;106743;-73
2024/02/01 10:51:32;;;;;;;25.40;14.00;;;;;;;4.28;70.38;99463.84;108731;1254;94219;-74
2024/02/01 10:54:01;;;;;;;22.10;12.40;;;;;;;4.26;70.50;99460.57;108731;1254;94265;-74
2024/02/01 10:56:29;;;;;;;23.80;12.40;;;;;;;4.26;70.45;99455.11;108710;1254;110953;-74
2024/02/01 10:58:59;;;;;;;29.70;15.00;;;;;;;4.25;70.32;99451.30;108676;1254;95518;-74
2024/02/01 11:03:34;;;;;;;;;;;;;;;4.27;70.65;99446.70;102362;1291;635973;-75
2024/02/01 11:06:04;;;;;;;33.10;14.20;;;;;;;4.22;70.47;99445.46;105737;1263;94258;-74
2024/02/01 11:08:33;;;;;;;28.90;15.10;;;;;;;4.19;70.47;99442.76;105578;1260;94303;-75
2024/02/01 11:11:15;;;;;;;27.00;14.20;;;;;;;4.17;70.39;99435.09;105490;1256;107308;-75
2024/02/01 11:13:48;;;;;;;30.00;15.10;;;;;;;4.19;70.26;99429.95;105530;1260;95508;-75
2024/02/01 11:16:18;;;;;;;27.80;14.80;;;;;;;4.19;70.33;99428.00;105494;1261;132373;-76
2024/02/01 11:18:54;;;;;;;26.30;15.70;;;;;;;4.19;70.30;99422.23;105431;1259;94405;-75
2024/02/01 11:21:30;;;;;;;25.00;13.20;;;;;;;4.17;70.19;99423.52;105278;1258;94352;-75
2024/02/01 11:24:06;;;;;;;27.30;15.50;;;;;;;4.16;70.23;99415.85;107119;1258;106863;-74
2024/02/01 11:26:40;;;;;;;27.00;14.40;;;;;;;4.15;70.20;99415.52;105766;1253;95506;-74
2024/02/01 11:29:12;;;;;;;25.90;13.70;;;;;;;4.15;70.28;99419.77;105990;1267;107001;-75
2024/02/01 11:31:44;;;;;;;;;;;;;;;4.16;70.16;99418.13;105247;1259;95190;-75
2024/02/01 11:34:20;;;;;;;29.80;14.10;;;;;;;4.16;70.33;99412.88;105453;1257;96165;-75
2024/02/01 11:36:48;;;;;;;27.00;14.20;;;;;;;4.16;70.03;99408.48;107751;1257;107790;-74
2024/02/01 11:39:17;;;;;;;25.20;13.20;;;;;;;4.14;70.03;99408.39;108389;1253;95368;-74
2024/02/01 11:41:48;;;;;;;28.70;14.20;;;;;;;4.11;70.03;99409.55;108397;1253;107672;-74
2024/02/01 11:44:20;;;;;;;29.80;15.50;;;;;;;4.10;70.02;99409.06;105467;1259;95335;-74
2024/02/01 11:46:50;;;;;;;28.20;13.30;;;;;;;4.10;69.81;99411.71;105441;1259;95158;-73
2024/02/01 11:49:25;;;;;;;32.30;16.60;;;;;;;4.09;69.97;99417.02;105750;1260;108636;-75
2024/02/01 11:52:36;;;;;;;26.80;14.20;;;;;;;4.09;69.96;99414.55;106209;1254;95228;-75
2024/02/01 11:55:07;;;;;;;27.80;13.40;;;;;;;4.08;70.07;99413.89;106455;1253;106594;-74
2024/02/01 11:57:47;;;;;;;31.80;15.30;;;;;;;4.07;70.04;99418.00;105558;1264;95281;-74
2024/02/01 12:00:20;;;;;;;31.80;16.30;;;;;;;4.04;69.98;99419.33;107017;1252;95256;-74
2024/02/01 12:03:05;;;;;;;28.50;13.90;;;;;;;4.01;69.90;99424.16;106483;1255;108474;-74
2024/02/01 12:05:34;;;;;;;36.00;16.60;;;;;;;3.98;69.85;99427.45;105880;1254;96211;-74
2024/02/01 12:08:03;;;;;;;30.50;16.00;;;;;;;3.94;69.66;99427.09;105258;1256;107055;-74
2024/02/01 12:10:33;;;;;;;39.60;17.30;;;;;;;3.91;70.03;99430.73;105574;1256;95307;-74